createdAt,value
2023-03-27T00:01:49.842Z,96932.46
2023-03-27T00:07:12.559Z,96930.85
2023-03-27T00:12:34.472Z,96926.48
2023-03-27T00:17:56.431Z,96917.33
2023-03-27T00:23:20.147Z,96922.54
2023-03-27T00:28:42.269Z,96922.96
2023-03-27T00:34:05.290Z,96921.14
2023-03-27T00:39:29.529Z,96926.77
2023-03-27T00:44:52.366Z,96927.67
2023-03-27T00:50:22.946Z,96917.81
2023-03-27T00:55:48.439Z,96919.36
2023-03-27T01:01:13.750Z,96910.70
2023-03-27T01:06:37.120Z,96905.60
2023-03-27T01:12:09.399Z,96893.98
2023-03-27T01:17:42.406Z,96882.11
2023-03-27T01:23:36.174Z,96878.51
2023-03-27T01:29:31.252Z,96879.80
2023-03-27T01:35:13.458Z,96878.21
2023-03-27T01:40:58.921Z,96869.73
2023-03-27T01:46:37.693Z,96863.11
2023-03-27T01:52:03.004Z,96867.73
2023-03-27T01:57:28.472Z,96870.50
2023-03-27T02:03:09.315Z,96869.46
2023-03-27T02:08:40.028Z,96862.01
2023-03-27T02:14:13.110Z,96855.98
2023-03-27T02:19:38.469Z,96847.59
2023-03-27T02:25:00.837Z,96844.96
2023-03-27T02:30:37.633Z,96843.05
2023-03-27T02:36:13.735Z,96850.29
2023-03-27T02:41:46.364Z,96853.20
2023-03-27T02:47:39.593Z,96851.45
2023-03-27T02:53:05.449Z,96855.27
2023-03-27T02:58:36.917Z,96854.42
2023-03-27T03:04:17.008Z,96858.70
2023-03-27T03:09:55.799Z,96864.30
2023-03-27T03:15:18.719Z,96867.09
2023-03-27T03:20:42.171Z,96869.05
2023-03-27T03:26:04.512Z,96869.98
2023-03-27T03:31:43.618Z,96869.86
2023-03-27T03:37:10.856Z,96869.91
2023-03-27T03:42:33.168Z,96869.92
2023-03-27T03:47:59.134Z,96871.13
2023-03-27T03:53:21.969Z,96866.52
2023-03-27T03:58:44.246Z,96864.98
2023-03-27T04:04:06.602Z,96862.41
2023-03-27T04:09:46.373Z,96864.79
2023-03-27T04:15:19.862Z,96867.17
2023-03-27T04:20:58.794Z,96866.15
2023-03-27T04:26:26.677Z,96866.88
2023-03-27T04:32:11.610Z,96869.30
2023-03-27T04:37:41.069Z,96873.42
2023-03-27T04:43:10.122Z,96869.89
2023-03-27T04:48:32.078Z,96873.34
2023-03-27T04:53:59.206Z,96873.73
2023-03-27T04:59:22.654Z,96874.38
2023-03-27T05:05:09.103Z,96877.35
2023-03-27T05:10:31.796Z,96877.66
2023-03-27T05:15:54.714Z,96881.58
2023-03-27T05:21:18.147Z,96879.16
2023-03-27T05:26:40.173Z,96878.84
2023-03-27T05:32:03.107Z,96882.83
2023-03-27T05:37:36.494Z,96885.06
2023-03-27T05:43:15.663Z,96893.27
2023-03-27T05:48:38.771Z,96894.59
2023-03-27T05:54:00.832Z,96901.00
2023-03-27T05:59:31.590Z,96903.67
2023-03-27T06:05:11.057Z,96899.73
2023-03-27T06:10:34.376Z,96911.55
2023-03-27T06:16:11.875Z,96914.97
2023-03-27T06:21:54.503Z,96920.09
2023-03-27T06:27:16.936Z,96930.70
2023-03-27T06:32:46.478Z,96943.14
2023-03-27T06:38:09.425Z,96954.33
2023-03-27T06:43:33.962Z,96963.45
2023-03-27T06:49:02.918Z,96972.55
2023-03-27T06:54:24.747Z,96974.71
2023-03-27T06:59:49.095Z,96985.08
2023-03-27T07:05:16.712Z,96993.80
2023-03-27T07:10:38.772Z,96996.91
2023-03-27T07:16:00.834Z,97008.52
2023-03-27T07:21:26.528Z,97014.58
2023-03-27T07:26:53.666Z,97024.29
2023-03-27T07:32:36.345Z,97033.42
2023-03-27T07:37:59.671Z,97036.50
2023-03-27T07:43:37.103Z,97042.48
2023-03-27T07:48:59.784Z,97047.13
2023-03-27T07:54:21.961Z,97054.34
2023-03-27T07:59:46.408Z,97057.94
2023-03-27T08:05:11.876Z,97067.70
2023-03-27T08:10:36.491Z,97072.66
2023-03-27T08:16:06.986Z,97083.27
2023-03-27T08:21:32.040Z,97087.69
2023-03-27T08:26:53.869Z,97101.70
2023-03-27T08:32:16.625Z,97110.90
2023-03-27T08:37:38.637Z,97128.59
2023-03-27T08:43:21.963Z,97138.74
2023-03-27T08:48:47.274Z,97156.27
2023-03-27T08:54:17.585Z,97173.73
2023-03-27T08:59:40.033Z,97181.70
2023-03-27T09:05:18.735Z,97195.13
2023-03-27T09:11:29.781Z,97199.64
2023-03-27T09:16:55.648Z,97211.70
2023-03-27T09:22:31.645Z,97221.31
2023-03-27T09:28:32.527Z,97241.85
2023-03-27T09:34:00.117Z,97249.03
2023-03-27T09:39:30.027Z,97268.84
2023-03-27T09:45:10.944Z,97271.50
2023-03-27T09:50:49.566Z,97287.06
2023-03-27T09:56:31.548Z,97297.29
2023-03-27T10:01:58.007Z,97308.83
2023-03-27T10:07:24.810Z,97321.95
2023-03-27T10:13:16.699Z,97334.98
2023-03-27T10:18:45.093Z,97357.66
2023-03-27T10:24:22.422Z,97358.73
2023-03-27T10:30:03.161Z,97366.45
2023-03-27T10:35:44.593Z,97377.73
2023-03-27T10:41:35.879Z,97375.99
2023-03-27T10:46:59.441Z,97375.98
2023-03-27T10:52:26.248Z,97377.95
2023-03-27T10:58:22.510Z,97387.15
2023-03-27T11:04:31.819Z,97381.21
2023-03-27T11:10:01.974Z,97387.67
2023-03-27T11:15:31.736Z,97397.56
2023-03-27T11:21:00.413Z,97396.27
2023-03-27T11:26:38.470Z,97408.55
2023-03-27T11:32:07.897Z,97409.35
2023-03-27T11:37:54.295Z,97427.71
2023-03-27T11:43:18.594Z,97437.90
2023-03-27T11:49:10.969Z,97437.53
2023-03-27T11:55:06.748Z,97449.71
2023-03-27T12:00:59.374Z,97465.22
2023-03-27T12:06:30.605Z,97472.04
2023-03-27T12:12:19.471Z,97477.60
2023-03-27T12:17:54.291Z,97486.19
2023-03-27T12:23:28.155Z,97498.02
2023-03-27T12:29:25.554Z,97513.66
2023-03-27T12:35:06.582Z,97521.55
2023-03-27T12:40:47.487Z,97539.01
2023-03-27T12:46:31.935Z,97547.45
2023-03-27T12:51:54.790Z,97553.23
2023-03-27T12:57:47.014Z,97571.54
2023-03-27T13:03:33.389Z,97582.80
2023-03-27T13:09:15.355Z,97593.93
2023-03-27T13:15:19.283Z,97603.17
2023-03-27T13:20:48.632Z,97610.88
2023-03-27T13:26:34.687Z,97615.83
2023-03-27T13:32:00.533Z,97623.70
2023-03-27T13:38:00.856Z,97633.14
2023-03-27T13:43:33.873Z,97633.64
2023-03-27T13:49:32.626Z,97638.07
2023-03-27T13:55:10.834Z,97649.95
2023-03-27T14:01:09.873Z,97658.65
2023-03-27T14:06:50.362Z,97668.48
2023-03-27T14:12:34.911Z,97681.59
2023-03-27T14:18:42.462Z,97697.12
2023-03-27T14:24:10.853Z,97704.36
2023-03-27T14:29:40.463Z,97723.94
2023-03-27T14:35:05.101Z,97729.83
2023-03-27T14:40:52.683Z,97750.00
2023-03-27T14:46:20.699Z,97763.05
2023-03-27T14:51:43.111Z,97770.66
2023-03-27T14:57:14.421Z,97779.11
2023-03-27T15:02:45.297Z,97785.48
2023-03-27T15:08:13.034Z,97799.09
2023-03-27T15:14:16.743Z,97814.93
2023-03-27T15:19:53.431Z,97829.99
2023-03-27T15:25:31.153Z,97846.16
2023-03-27T15:30:56.870Z,97853.96
2023-03-27T15:36:28.693Z,97857.14
2023-03-27T15:41:53.029Z,97865.83
2023-03-27T15:47:30.356Z,97866.61
2023-03-27T15:52:53.587Z,97873.33
2023-03-27T15:58:26.579Z,97871.20
2023-03-27T16:03:50.774Z,97878.31
2023-03-27T16:09:28.669Z,97882.70
2023-03-27T16:14:54.113Z,97895.47
2023-03-27T16:20:22.252Z,97904.67
2023-03-27T16:25:43.993Z,97905.27
2023-03-27T16:31:15.272Z,97918.64
2023-03-27T16:36:37.689Z,97922.69
2023-03-27T16:41:59.620Z,97935.23
2023-03-27T16:47:23.554Z,97938.54
2023-03-27T16:52:45.286Z,97946.84
2023-03-27T16:58:07.810Z,97957.94
2023-03-27T17:03:29.542Z,97971.02
2023-03-27T17:08:55.864Z,97980.08
2023-03-27T17:14:18.116Z,97986.02
2023-03-27T17:19:39.559Z,97992.92
2023-03-27T17:25:03.524Z,97995.70
2023-03-27T17:30:37.970Z,98003.23
2023-03-27T17:36:11.275Z,98004.80
2023-03-27T17:41:33.125Z,98008.98
2023-03-27T17:46:55.625Z,98020.73
2023-03-27T17:52:18.317Z,98030.99
2023-03-27T17:57:41.960Z,98042.23
2023-03-27T18:03:03.843Z,98052.23
2023-03-27T18:08:26.214Z,98053.44
2023-03-27T18:13:53.071Z,98065.60
2023-03-27T18:19:20.933Z,98072.73
2023-03-27T18:24:44.480Z,98082.08
2023-03-27T18:30:14.696Z,98081.39
2023-03-27T18:35:37.153Z,98089.81
2023-03-27T18:41:00.224Z,98100.30
2023-03-27T18:46:22.441Z,98103.20
2023-03-27T18:51:44.322Z,98104.94
2023-03-27T18:57:08.432Z,98110.81
2023-03-27T19:02:30.638Z,98107.60
2023-03-27T19:07:57.858Z,98119.90
2023-03-27T19:13:19.935Z,98123.11
2023-03-27T19:19:11.008Z,98128.48
2023-03-27T19:24:52.854Z,98133.84
2023-03-27T19:30:15.732Z,98138.54
2023-03-27T19:35:37.795Z,98141.71
2023-03-27T19:41:00.300Z,98142.05
2023-03-27T19:46:24.711Z,98143.77
2023-03-27T19:51:48.275Z,98148.61
2023-03-27T19:57:10.509Z,98151.09
2023-03-27T20:02:32.296Z,98155.80
2023-03-27T20:07:54.155Z,98160.63
2023-03-27T20:13:19.203Z,98159.83
2023-03-27T20:18:42.030Z,98154.27
2023-03-27T20:24:04.269Z,98156.90
2023-03-27T20:29:28.411Z,98159.07
2023-03-27T20:34:51.070Z,98159.60
2023-03-27T20:40:16.666Z,98164.48
2023-03-27T20:45:45.828Z,98160.19
2023-03-27T20:51:14.884Z,98162.17
2023-03-27T20:56:36.842Z,98160.48
2023-03-27T21:02:00.331Z,98158.94
2023-03-27T21:07:25.587Z,98158.80
2023-03-27T21:12:49.621Z,98158.06
2023-03-27T21:18:11.266Z,98156.70
2023-03-27T21:23:34.731Z,98152.23
2023-03-27T21:28:56.919Z,98150.60
2023-03-27T21:34:18.849Z,98154.94
2023-03-27T21:39:41.184Z,98153.70
2023-03-27T21:45:03.014Z,98152.33
2023-03-27T21:50:26.177Z,98155.94
2023-03-27T21:55:47.985Z,98155.16
2023-03-27T22:01:09.871Z,98157.04
2023-03-27T22:06:31.808Z,98154.55
2023-03-27T22:11:53.828Z,98157.86
2023-03-27T22:17:17.666Z,98160.64
2023-03-27T22:22:40.461Z,98157.98
2023-03-27T22:28:04.399Z,98160.13
2023-03-27T22:33:28.081Z,98160.83
2023-03-27T22:38:50.027Z,98160.52
2023-03-27T22:44:12.056Z,98167.09
2023-03-27T22:49:36.592Z,98169.88
2023-03-27T22:54:58.478Z,98180.33
2023-03-27T23:00:20.770Z,98188.89
2023-03-27T23:05:44.535Z,98187.59
2023-03-27T23:11:06.724Z,98193.15
2023-03-27T23:16:28.702Z,98201.67
2023-03-27T23:21:50.883Z,98203.70
2023-03-27T23:27:12.710Z,98206.23
2023-03-27T23:32:38.053Z,98208.60
2023-03-27T23:38:00.284Z,98206.67
2023-03-27T23:43:22.401Z,98206.80
2023-03-27T23:48:44.941Z,98203.31
2023-03-27T23:54:06.870Z,98203.56
2023-03-27T23:59:38.079Z,98205.98
